Time;durP1;ratioP1;P1;durP2;ratioP2;P2;SDS_P1;SDS_P2;PMS_P1;PMS_P2;Temp;Humidity;BMP_temperature;BMP_pressure;BME280_temperature;BME280_humidity;BME280_pressure;Samples;Min_cycle;Max_cycle;Signal;HPM_P1;HPM_P2
2023/04/07 00:01:16;;;;;;;3.83;3.47;;;9.50;99.90;;;;;;4888695;29;20478;-75
2023/04/07 00:03:43;;;;;;;3.40;2.50;;;9.50;99.90;;;;;;4878757;29;20562;-73
2023/04/07 00:06:10;;;;;;;5.50;2.50;;;9.40;99.90;;;;;;4894493;29;20482;-73
2023/04/07 00:08:37;;;;;;;4.83;2.40;;;9.40;99.90;;;;;;4891960;29;21023;-75
2023/04/07 00:11:07;;;;;;;3.47;2.53;;;9.50;99.90;;;;;;4879708;29;20498;-75
2023/04/07 00:13:35;;;;;;;5.80;3.10;;;9.40;99.90;;;;;;4883895;29;20545;-74
2023/04/07 00:16:02;;;;;;;5.17;3.60;;;9.50;99.90;;;;;;4855731;29;20441;-74
2023/04/07 00:18:31;;;;;;;4.47;2.83;;;9.50;99.90;;;;;;4888878;29;20550;-74
2023/04/07 00:20:59;;;;;;;4.40;2.80;;;9.40;99.90;;;;;;4889559;29;20473;-74
2023/04/07 00:23:27;;;;;;;4.73;2.80;;;9.40;99.90;;;;;;4883505;29;20737;-74
2023/04/07 00:25:54;;;;;;;4.17;3.77;;;9.50;99.90;;;;;;4896193;29;20477;-74
2023/04/07 00:28:24;;;;;;;4.03;3.07;;;9.40;99.90;;;;;;4857514;29;20455;-74
2023/04/07 00:30:53;;;;;;;5.30;4.17;;;9.30;99.90;;;;;;4879864;29;21015;-74
2023/04/07 00:33:21;;;;;;;4.53;3.03;;;9.30;99.90;;;;;;4887366;29;20916;-74
2023/04/07 00:35:48;;;;;;;2.93;2.43;;;9.30;99.90;;;;;;4885307;29;20556;-74
2023/04/07 00:38:15;;;;;;;3.70;3.33;;;9.40;99.90;;;;;;4879244;29;20474;-74
2023/04/07 00:40:42;;;;;;;6.60;3.50;;;9.40;99.90;;;;;;4887932;29;20461;-74
2023/04/07 00:43:10;;;;;;;4.40;3.00;;;9.50;99.90;;;;;;4893465;29;20497;-74
2023/04/07 00:45:38;;;;;;;4.50;3.13;;;9.40;99.90;;;;;;4896168;29;21871;-75
2023/04/07 00:48:06;;;;;;;5.73;3.70;;;9.30;99.90;;;;;;4889303;29;20595;-74
2023/04/07 00:50:33;;;;;;;4.50;3.00;;;9.40;99.90;;;;;;4884802;29;20463;-74
2023/04/07 00:53:01;;;;;;;9.40;3.70;;;9.40;99.90;;;;;;4878108;29;21374;-74
2023/04/07 00:55:30;;;;;;;5.47;4.43;;;9.50;99.90;;;;;;4886180;29;20490;-75
2023/04/07 00:57:58;;;;;;;5.70;3.63;;;9.50;99.90;;;;;;4885429;29;20572;-74
2023/04/07 01:00:27;;;;;;;7.13;6.33;;;9.60;99.90;;;;;;4879582;29;20506;-74
2023/04/07 01:02:59;;;;;;;8.13;3.67;;;9.70;99.90;;;;;;4884816;29;20509;-74
2023/04/07 01:05:38;;;;;;;7.20;5.03;;;9.70;99.90;;;;;;4884169;29;20444;-75
2023/04/07 01:08:14;;;;;;;7.20;4.13;;;9.80;99.90;;;;;;4887886;29;20465;-75
2023/04/07 01:10:49;;;;;;;6.10;4.27;;;9.80;99.90;;;;;;4890269;29;20600;-74
2023/04/07 01:13:26;;;;;;;5.37;3.73;;;9.80;99.90;;;;;;4873351;29;20448;-74
2023/04/07 01:15:56;;;;;;;3.93;3.20;;;9.80;99.90;;;;;;4881088;29;20521;-74
2023/04/07 01:18:27;;;;;;;4.40;3.53;;;9.70;99.90;;;;;;4883054;29;20430;-74
2023/04/07 01:21:00;;;;;;;7.60;5.67;;;9.70;99.90;;;;;;4881867;29;20573;-74
2023/04/07 01:23:41;;;;;;;5.90;3.47;;;9.80;99.90;;;;;;4872290;29;20476;-74
2023/04/07 01:26:19;;;;;;;5.23;4.60;;;9.80;99.90;;;;;;4879905;29;20470;-74
2023/04/07 01:29:21;;;;;;;7.37;4.33;;;9.80;99.90;;;;;;4821073;29;20596;-75
2023/04/07 01:31:51;;;;;;;7.03;3.90;;;9.80;99.90;;;;;;4877341;29;20524;-74
2023/04/07 01:34:19;;;;;;;7.47;4.13;;;9.80;99.90;;;;;;4877281;29;20865;-74
2023/04/07 01:36:48;;;;;;;8.60;4.33;;;9.90;99.90;;;;;;4876054;29;20557;-74
2023/04/07 01:39:16;;;;;;;5.97;3.80;;;9.90;99.90;;;;;;4881277;29;20460;-74
2023/04/07 01:41:44;;;;;;;8.10;4.10;;;9.90;99.90;;;;;;4897981;29;20498;-75
2023/04/07 01:44:13;;;;;;;6.30;4.80;;;9.90;99.90;;;;;;4891681;29;20476;-73
2023/04/07 01:46:40;;;;;;;6.43;4.27;;;10.00;99.90;;;;;;4888317;29;20520;-73
2023/04/07 01:49:08;;;;;;;6.27;3.87;;;10.00;99.90;;;;;;4881171;29;20540;-73
2023/04/07 01:51:36;;;;;;;6.30;3.87;;;10.00;99.90;;;;;;4871647;29;20467;-73
2023/04/07 01:54:07;;;;;;;6.93;4.03;;;10.00;99.90;;;;;;4882014;29;20870;-73
2023/04/07 01:56:35;;;;;;;6.87;3.93;;;10.10;99.90;;;;;;4887472;29;20428;-74
2023/04/07 01:59:03;;;;;;;4.73;4.13;;;10.10;99.90;;;;;;4873207;29;20618;-73
2023/04/07 02:01:30;;;;;;;6.77;5.10;;;10.10;99.90;;;;;;4856178;29;20975;-73
2023/04/07 02:04:07;;;;;;;7.93;4.53;;;10.10;99.90;;;;;;4881530;29;20556;-73
2023/04/07 02:06:43;;;;;;;8.33;4.87;;;10.20;99.90;;;;;;4860804;29;20449;-74
2023/04/07 02:09:13;;;;;;;7.03;4.33;;;10.20;99.90;;;;;;4878930;29;20557;-73
2023/04/07 02:11:42;;;;;;;7.57;4.00;;;10.10;99.90;;;;;;4863693;29;20454;-74
2023/04/07 02:14:13;;;;;;;10.17;5.30;;;10.10;99.90;;;;;;4873538;29;20624;-74
2023/04/07 02:16:42;;;;;;;8.40;5.47;;;10.10;99.90;;;;;;4866981;29;20479;-74
2023/04/07 02:19:10;;;;;;;7.17;5.80;;;10.10;99.90;;;;;;4878452;29;20436;-74
2023/04/07 02:21:40;;;;;;;7.57;5.37;;;10.10;99.90;;;;;;4888658;29;20841;-74
2023/04/07 02:24:08;;;;;;;9.83;6.30;;;10.00;99.90;;;;;;4887952;29;20457;-74
2023/04/07 02:26:36;;;;;;;6.63;4.47;;;10.00;99.90;;;;;;4885751;29;20503;-74
2023/04/07 02:29:03;;;;;;;12.47;6.20;;;10.10;99.90;;;;;;4880855;29;21014;-74
2023/04/07 02:31:30;;;;;;;9.97;4.47;;;10.10;99.90;;;;;;4881267;29;20467;-74
2023/04/07 02:33:57;;;;;;;10.07;5.37;;;10.10;99.90;;;;;;4881362;29;20511;-74
2023/04/07 02:36:25;;;;;;;11.37;7.03;;;10.10;99.90;;;;;;4872489;29;20425;-75
2023/04/07 02:38:53;;;;;;;8.60;5.87;;;10.10;99.90;;;;;;4866579;29;20465;-74
2023/04/07 02:41:22;;;;;;;7.23;3.80;;;10.10;99.90;;;;;;4876237;29;20545;-74
2023/04/07 02:43:49;;;;;;;6.73;4.27;;;10.10;99.90;;;;;;4881232;29;20849;-74
2023/04/07 02:46:16;;;;;;;7.07;5.37;;;10.00;99.90;;;;;;4879442;29;20504;-74
2023/04/07 02:48:43;;;;;;;8.50;4.87;;;10.10;99.90;;;;;;4887650;29;20513;-74
2023/04/07 02:51:11;;;;;;;8.13;5.00;;;10.20;99.90;;;;;;4889788;29;20438;-74
2023/04/07 02:53:38;;;;;;;12.60;6.00;;;10.20;99.90;;;;;;4881002;29;20501;-74
2023/04/07 02:56:07;;;;;;;7.17;5.33;;;10.20;99.90;;;;;;4887516;29;20543;-76
2023/04/07 02:58:37;;;;;;;8.97;6.43;;;10.20;99.90;;;;;;4892542;29;21127;-74
2023/04/07 03:01:04;;;;;;;17.17;6.40;;;10.20;99.90;;;;;;4887929;29;20441;-75
2023/04/07 03:03:31;;;;;;;12.30;5.90;;;10.20;99.90;;;;;;4899809;29;20464;-74
2023/04/07 03:05:58;;;;;;;8.03;5.63;;;10.30;99.90;;;;;;4886445;29;20550;-74
2023/04/07 03:08:26;;;;;;;10.97;6.20;;;10.20;99.90;;;;;;4881748;29;20535;-74
2023/04/07 03:10:54;;;;;;;11.07;6.07;;;10.10;99.90;;;;;;4888925;29;20553;-74
2023/04/07 03:13:23;;;;;;;10.87;5.33;;;10.10;99.90;;;;;;4895533;29;20498;-74
2023/04/07 03:15:50;;;;;;;9.07;5.50;;;10.20;99.90;;;;;;4885010;29;20545;-74
2023/04/07 03:18:26;;;;;;;11.93;6.40;;;10.20;99.90;;;;;;4884393;29;20469;-75
2023/04/07 03:20:54;;;;;;;10.53;5.50;;;10.30;99.90;;;;;;4861098;29;20428;-76
2023/04/07 03:23:27;;;;;;;9.43;4.87;;;10.20;99.90;;;;;;4887611;29;20955;-74
2023/04/07 03:25:54;;;;;;;12.20;6.50;;;10.20;99.90;;;;;;4852307;29;20498;-75
2023/04/07 03:28:23;;;;;;;13.33;8.13;;;10.20;99.90;;;;;;4894060;29;20545;-74
2023/04/07 03:30:50;;;;;;;8.43;6.10;;;10.10;99.90;;;;;;4896169;29;20662;-74
2023/04/07 03:33:17;;;;;;;10.97;6.70;;;10.20;99.90;;;;;;4889082;29;20783;-74
2023/04/07 03:35:44;;;;;;;11.47;6.17;;;10.20;99.90;;;;;;4903220;29;21621;-74
2023/04/07 03:38:11;;;;;;;11.33;7.30;;;10.20;99.90;;;;;;4887964;29;20596;-74
2023/04/07 03:40:40;;;;;;;11.00;6.80;;;10.20;99.90;;;;;;4889788;29;20538;-73
2023/04/07 03:43:11;;;;;;;10.10;6.40;;;10.20;99.90;;;;;;4890256;29;20481;-74
2023/04/07 03:45:40;;;;;;;11.13;6.07;;;10.20;99.90;;;;;;4881641;29;20462;-74
2023/04/07 03:48:09;;;;;;;10.87;5.77;;;10.20;99.90;;;;;;4890968;29;20449;-74
2023/04/07 03:50:36;;;;;;;8.43;6.60;;;10.30;99.90;;;;;;4853532;29;20446;-74
2023/04/07 03:53:03;;;;;;;9.73;6.70;;;10.30;99.90;;;;;;4883380;29;20846;-74
2023/04/07 03:55:30;;;;;;;10.13;6.80;;;10.20;99.90;;;;;;4892597;29;20548;-74
2023/04/07 03:57:58;;;;;;;11.00;7.00;;;10.20;99.90;;;;;;4892569;29;21009;-74
2023/04/07 04:00:25;;;;;;;14.50;6.97;;;10.20;99.90;;;;;;4875356;29;20580;-74
2023/04/07 04:02:54;;;;;;;10.77;6.70;;;10.20;99.90;;;;;;4890223;29;20461;-74
2023/04/07 04:05:21;;;;;;;14.10;7.30;;;10.30;99.90;;;;;;4888550;29;20537;-74
2023/04/07 04:07:50;;;;;;;9.13;7.27;;;10.30;99.90;;;;;;4883477;29;20441;-74
2023/04/07 04:10:17;;;;;;;10.23;6.80;;;10.30;99.90;;;;;;4885819;29;20442;-74
2023/04/07 04:12:44;;;;;;;10.20;8.23;;;10.30;99.90;;;;;;4887104;29;20490;-74
2023/04/07 04:15:12;;;;;;;9.20;6.07;;;10.20;99.90;;;;;;4887947;29;20487;-74
2023/04/07 04:17:40;;;;;;;12.50;7.50;;;10.10;99.90;;;;;;4886659;29;20460;-74
2023/04/07 04:20:10;;;;;;;10.70;6.93;;;10.10;99.90;;;;;;4893808;29;20466;-75
2023/04/07 04:22:37;;;;;;;12.33;5.87;;;10.10;99.90;;;;;;4891868;29;20474;-75
2023/04/07 04:25:05;;;;;;;11.17;6.70;;;10.20;99.90;;;;;;4886453;29;20444;-74
2023/04/07 04:27:32;;;;;;;12.63;5.60;;;10.30;99.90;;;;;;4886044;29;20463;-74
2023/04/07 04:29:59;;;;;;;12.57;7.20;;;10.20;99.90;;;;;;4905365;29;20440;-74
2023/04/07 04:32:26;;;;;;;8.47;6.00;;;10.20;99.90;;;;;;4901930;29;20505;-74
2023/04/07 04:34:53;;;;;;;12.77;6.60;;;10.30;99.90;;;;;;4884554;29;20457;-74
2023/04/07 04:37:21;;;;;;;9.90;6.60;;;10.20;99.90;;;;;;4881223;29;20745;-74
2023/04/07 04:39:48;;;;;;;13.40;7.50;;;10.20;99.90;;;;;;4894160;29;20437;-74
2023/04/07 04:42:17;;;;;;;17.27;8.83;;;10.20;99.90;;;;;;4882570;29;20506;-74
2023/04/07 04:44:45;;;;;;;14.17;8.30;;;10.10;99.90;;;;;;4871671;29;20434;-75
2023/04/07 04:47:14;;;;;;;17.20;7.00;;;10.00;99.90;;;;;;4894879;29;20540;-73
2023/04/07 04:49:47;;;;;;;13.33;7.63;;;10.00;99.90;;;;;;4887053;29;20501;-73
2023/04/07 04:52:14;;;;;;;22.00;9.70;;;10.00;99.90;;;;;;4856245;29;20481;-73
2023/04/07 04:54:43;;;;;;;9.30;6.73;;;10.00;99.90;;;;;;4891380;29;20475;-74
2023/04/07 04:57:10;;;;;;;18.30;8.13;;;10.00;99.90;;;;;;4883749;29;20467;-73
2023/04/07 04:59:43;;;;;;;17.33;7.23;;;10.00;99.90;;;;;;4885860;29;20528;-74
2023/04/07 05:02:12;;;;;;;12.70;6.43;;;10.00;99.90;;;;;;4885633;29;20554;-74
2023/04/07 05:04:39;;;;;;;15.37;6.73;;;10.10;99.90;;;;;;4887309;29;20592;-73
2023/04/07 05:07:06;;;;;;;15.70;7.03;;;10.00;99.90;;;;;;4892201;29;20458;-73
2023/04/07 05:09:35;;;;;;;12.17;5.70;;;10.10;99.90;;;;;;4860794;29;20456;-73
2023/04/07 05:12:12;;;;;;;9.70;6.07;;;10.00;99.90;;;;;;4850120;29;20477;-73
2023/04/07 05:14:39;;;;;;;22.63;8.30;;;10.10;99.90;;;;;;4885124;29;20436;-73
2023/04/07 05:17:16;;;;;;;15.77;7.63;;;10.00;99.90;;;;;;4888091;29;20446;-73
2023/04/07 05:19:43;;;;;;;12.60;8.10;;;9.90;99.90;;;;;;4889329;29;20462;-74
2023/04/07 05:22:10;;;;;;;11.77;6.33;;;9.80;99.90;;;;;;4887420;29;20572;-74
2023/04/07 05:24:37;;;;;;;10.60;6.50;;;9.80;99.90;;;;;;4885831;29;20467;-74
2023/04/07 05:27:09;;;;;;;15.70;6.40;;;9.80;99.90;;;;;;4905580;29;20433;-73
2023/04/07 05:29:36;;;;;;;11.17;7.40;;;9.80;99.90;;;;;;4894538;29;21130;-74
2023/04/07 05:32:05;;;;;;;17.63;7.67;;;9.80;99.90;;;;;;4885782;29;20445;-74
2023/04/07 05:34:32;;;;;;;14.33;6.27;;;9.80;99.90;;;;;;4891946;29;20447;-74
2023/04/07 05:36:59;;;;;;;12.63;6.53;;;9.80;99.90;;;;;;4860112;29;20495;-74
2023/04/07 05:39:26;;;;;;;11.47;5.60;;;9.80;99.90;;;;;;4902557;29;20942;-74
2023/04/07 05:41:53;;;;;;;13.70;6.00;;;9.80;99.90;;;;;;4896747;29;20437;-75
2023/04/07 05:44:22;;;;;;;14.77;5.83;;;9.80;99.90;;;;;;4856665;29;20494;-74
2023/04/07 05:46:49;;;;;;;11.23;4.40;;;9.60;99.90;;;;;;4895418;29;20823;-74
2023/04/07 05:49:17;;;;;;;10.10;6.40;;;9.60;99.90;;;;;;4890546;29;20462;-74
2023/04/07 05:51:44;;;;;;;12.20;7.57;;;9.60;99.90;;;;;;4886117;29;20433;-74
2023/04/07 05:54:11;;;;;;;8.70;4.53;;;9.70;99.90;;;;;;4894408;29;20962;-74
2023/04/07 05:56:39;;;;;;;10.13;5.97;;;9.70;99.90;;;;;;4889854;29;20530;-74
2023/04/07 05:59:06;;;;;;;7.67;4.20;;;9.70;99.90;;;;;;4881604;29;20491;-74
2023/04/07 06:01:35;;;;;;;7.13;4.80;;;9.70;99.90;;;;;;4883081;29;20473;-75
2023/04/07 06:04:02;;;;;;;11.50;5.80;;;9.70;99.90;;;;;;4886824;29;20985;-74
2023/04/07 06:06:30;;;;;;;15.73;4.77;;;9.70;99.90;;;;;;4888287;29;20451;-74
2023/04/07 06:08:57;;;;;;;8.57;4.47;;;9.70;99.90;;;;;;4879070;29;20475;-75
2023/04/07 06:11:25;;;;;;;6.67;4.37;;;9.80;99.90;;;;;;4889792;29;20475;-74
2023/04/07 06:13:52;;;;;;;12.43;6.33;;;9.80;99.90;;;;;;4881063;29;20544;-74
2023/04/07 06:16:19;;;;;;;9.40;5.57;;;9.80;99.90;;;;;;4886861;29;20490;-74
2023/04/07 06:18:47;;;;;;;6.53;4.30;;;9.80;99.90;;;;;;4882766;29;21125;-75
2023/04/07 06:21:15;;;;;;;7.10;4.30;;;9.80;99.90;;;;;;4890193;29;20481;-74
2023/04/07 06:23:42;;;;;;;11.07;6.00;;;9.70;99.90;;;;;;4902401;29;20464;-75
2023/04/07 06:26:11;;;;;;;10.53;5.40;;;9.70;99.90;;;;;;4891038;29;20972;-74
2023/04/07 06:28:38;;;;;;;9.40;5.00;;;9.60;99.90;;;;;;4890054;29;20945;-73
2023/04/07 06:31:06;;;;;;;7.23;4.50;;;9.70;99.90;;;;;;4886965;29;20499;-74
2023/04/07 06:33:33;;;;;;;9.20;5.23;;;9.60;99.90;;;;;;4900805;29;20550;-74
2023/04/07 06:36:02;;;;;;;8.67;5.33;;;9.60;99.90;;;;;;4895990;29;20607;-74
2023/04/07 06:38:29;;;;;;;7.60;5.00;;;9.80;99.90;;;;;;4886267;29;20505;-74
2023/04/07 06:40:56;;;;;;;10.80;5.20;;;9.80;99.90;;;;;;4898076;29;20433;-74
2023/04/07 06:43:23;;;;;;;14.40;5.30;;;9.90;99.90;;;;;;4882958;29;20468;-74
2023/04/07 06:48:31;;;;;;;10.20;5.70;;;9.90;99.90;;;;;;4874812;29;20945;-74
2023/04/07 06:51:00;;;;;;;5.83;4.10;;;10.00;99.90;;;;;;4878860;29;20449;-74
2023/04/07 06:53:27;;;;;;;7.90;5.00;;;10.10;99.90;;;;;;4882403;29;20550;-74
2023/04/07 06:56:04;;;;;;;12.80;5.27;;;10.10;99.90;;;;;;4878699;29;20465;-74
2023/04/07 06:58:31;;;;;;;13.27;6.20;;;10.10;99.90;;;;;;4866108;29;20994;-74
2023/04/07 07:00:58;;;;;;;7.70;4.47;;;10.10;99.90;;;;;;4875406;29;20475;-73
2023/04/07 07:03:26;;;;;;;8.03;4.97;;;10.10;99.90;;;;;;4883260;29;20465;-72
2023/04/07 07:05:57;;;;;;;9.20;4.57;;;10.20;99.90;;;;;;4878035;29;20509;-73
2023/04/07 07:08:26;;;;;;;8.83;4.87;;;10.20;99.90;;;;;;4876945;29;21074;-73
2023/04/07 07:10:54;;;;;;;9.47;4.60;;;10.00;99.90;;;;;;4896169;29;20550;-72
2023/04/07 07:13:23;;;;;;;10.93;4.80;;;9.90;99.90;;;;;;4891271;29;20457;-72
2023/04/07 07:15:50;;;;;;;9.37;5.70;;;9.90;99.90;;;;;;4877312;29;20578;-74
2023/04/07 07:18:18;;;;;;;9.47;4.70;;;10.10;99.90;;;;;;4882234;29;20441;-72
2023/04/07 07:20:45;;;;;;;9.00;5.17;;;10.10;99.90;;;;;;4899421;29;20838;-74
2023/04/07 07:23:13;;;;;;;11.53;6.30;;;10.20;99.90;;;;;;4880504;29;20486;-75
2023/04/07 07:25:42;;;;;;;7.80;5.17;;;10.10;99.90;;;;;;4876332;29;20467;-72
2023/04/07 07:28:09;;;;;;;9.53;5.07;;;10.00;99.90;;;;;;4884087;29;20554;-73
2023/04/07 07:30:36;;;;;;;9.00;4.60;;;10.00;99.90;;;;;;4876163;29;20452;-72
2023/04/07 07:33:06;;;;;;;9.97;5.90;;;10.10;99.90;;;;;;4882416;29;21567;-73
2023/04/07 07:35:36;;;;;;;10.17;5.37;;;10.10;99.90;;;;;;4883012;29;21776;-72
2023/04/07 07:38:03;;;;;;;7.23;5.50;;;10.10;99.90;;;;;;4844694;29;20459;-74
2023/04/07 07:40:30;;;;;;;13.83;6.83;;;10.20;99.90;;;;;;4885901;29;21028;-73
2023/04/07 07:43:00;;;;;;;8.53;5.43;;;10.40;99.90;;;;;;4877781;29;20524;-74
2023/04/07 07:45:27;;;;;;;13.30;5.60;;;10.40;99.90;;;;;;4888409;29;20505;-73
2023/04/07 07:47:54;;;;;;;14.03;6.87;;;10.40;99.90;;;;;;4866631;29;20438;-74
2023/04/07 07:50:21;;;;;;;9.67;4.83;;;10.40;99.90;;;;;;4876362;29;20450;-72
2023/04/07 07:52:51;;;;;;;9.30;4.73;;;10.40;99.90;;;;;;4880447;29;20555;-73
2023/04/07 07:55:18;;;;;;;5.00;3.97;;;10.30;99.90;;;;;;4883369;29;21359;-73
2023/04/07 07:57:45;;;;;;;6.67;4.47;;;10.40;99.90;;;;;;4883145;29;20486;-73
2023/04/07 08:00:16;;;;;;;9.20;4.47;;;10.30;99.90;;;;;;4878229;29;20984;-73
2023/04/07 08:02:43;;;;;;;7.23;4.90;;;10.40;99.90;;;;;;4866534;29;20487;-73
2023/04/07 08:05:10;;;;;;;8.37;5.10;;;10.50;99.90;;;;;;4874935;29;20585;-75
2023/04/07 08:07:37;;;;;;;5.33;2.83;;;10.50;99.90;;;;;;4871954;29;20474;-73
2023/04/07 08:10:05;;;;;;;6.40;3.50;;;10.50;99.90;;;;;;4873468;29;20493;-76
2023/04/07 08:12:32;;;;;;;5.70;3.53;;;10.60;99.90;;;;;;4872547;29;21227;-75
2023/04/07 08:14:59;;;;;;;5.57;4.17;;;10.70;99.90;;;;;;4885707;29;20459;-75
2023/04/07 08:17:28;;;;;;;8.73;5.67;;;10.90;99.90;;;;;;4887299;29;20569;-75
2023/04/07 08:19:55;;;;;;;8.43;4.23;;;10.90;99.90;;;;;;4889264;29;20470;-73
2023/04/07 08:22:22;;;;;;;7.67;4.13;;;10.90;99.90;;;;;;4869941;29;20518;-74
2023/04/07 08:24:49;;;;;;;8.17;4.10;;;10.80;99.90;;;;;;4865111;29;20953;-75
2023/04/07 08:27:16;;;;;;;9.10;4.13;;;10.80;99.90;;;;;;4867103;29;20432;-73
2023/04/07 08:29:43;;;;;;;7.10;3.77;;;10.80;99.90;;;;;;4866837;29;20499;-74
2023/04/07 08:32:10;;;;;;;6.27;3.20;;;10.60;99.90;;;;;;4871937;29;21286;-74
2023/04/07 08:34:46;;;;;;;5.27;3.00;;;10.50;99.90;;;;;;4871593;29;21182;-73
2023/04/07 08:37:13;;;;;;;6.40;3.80;;;10.60;99.90;;;;;;4884717;29;20486;-73
2023/04/07 08:39:43;;;;;;;4.70;3.30;;;10.60;99.90;;;;;;4883108;29;20553;-75
2023/04/07 08:42:13;;;;;;;7.03;3.83;;;10.70;99.90;;;;;;4874424;29;21036;-74
2023/04/07 08:44:43;;;;;;;7.00;4.00;;;10.70;99.90;;;;;;4877348;29;20445;-73
2023/04/07 08:47:15;;;;;;;5.87;3.50;;;10.80;99.90;;;;;;4875576;29;20528;-74
2023/04/07 08:50:02;;;;;;;5.47;3.60;;;10.90;99.90;;;;;;4873567;29;20446;-77
2023/04/07 08:52:35;;;;;;;6.50;3.97;;;10.90;99.90;;;;;;4870976;29;20478;-74
2023/04/07 08:55:05;;;;;;;12.60;5.37;;;11.00;99.90;;;;;;4875588;29;20542;-74
2023/04/07 08:57:34;;;;;;;11.20;4.40;;;11.00;99.90;;;;;;4864546;29;20710;-75
2023/04/07 09:00:04;;;;;;;8.63;5.13;;;11.10;99.90;;;;;;4864339;29;20453;-73
2023/04/07 09:02:33;;;;;;;11.60;5.93;;;11.10;99.90;;;;;;4870787;29;20509;-74
2023/04/07 09:05:03;;;;;;;5.90;5.30;;;11.20;99.90;;;;;;4868886;29;20788;-74
2023/04/07 09:07:34;;;;;;;6.20;3.40;;;11.20;99.90;;;;;;4870287;29;20557;-74
2023/04/07 09:10:01;;;;;;;6.97;3.53;;;11.20;99.90;;;;;;4868865;29;20438;-74
2023/04/07 09:12:29;;;;;;;4.93;3.10;;;11.20;99.90;;;;;;4877937;29;20736;-74
2023/04/07 09:14:57;;;;;;;3.13;2.83;;;11.10;99.90;;;;;;4888374;29;20451;-76
2023/04/07 09:17:27;;;;;;;7.30;4.37;;;11.10;99.90;;;;;;4873234;29;20558;-74
2023/04/07 09:19:57;;;;;;;3.93;3.27;;;11.00;99.90;;;;;;4867035;29;21635;-74
2023/04/07 09:22:42;;;;;;;5.13;4.50;;;11.00;99.90;;;;;;4871059;29;20515;-74
2023/04/07 09:25:17;;;;;;;7.40;4.30;;;11.10;99.90;;;;;;4882242;29;20471;-76
2023/04/07 09:27:55;;;;;;;4.20;2.57;;;11.20;99.90;;;;;;4874137;29;20859;-76
2023/04/07 09:30:23;;;;;;;4.80;3.60;;;11.10;99.90;;;;;;4868193;29;20448;-75
2023/04/07 09:32:51;;;;;;;3.57;3.13;;;11.10;99.90;;;;;;4865792;29;20487;-74
2023/04/07 09:35:18;;;;;;;6.20;3.83;;;11.10;99.90;;;;;;4867406;29;20442;-74
2023/04/07 09:38:02;;;;;;;4.80;3.30;;;10.90;99.90;;;;;;4867260;29;20994;-74
2023/04/07 09:40:30;;;;;;;5.03;2.90;;;10.70;99.90;;;;;;4880637;29;20456;-74
2023/04/07 09:43:00;;;;;;;5.57;3.20;;;10.80;99.90;;;;;;4872039;29;20473;-75
2023/04/07 09:45:27;;;;;;;3.60;2.80;;;10.90;99.90;;;;;;4861888;29;20455;-74
2023/04/07 09:47:55;;;;;;;4.00;2.77;;;10.90;99.90;;;;;;4872275;29;20468;-74
2023/04/07 09:50:33;;;;;;;4.30;3.00;;;10.90;99.90;;;;;;4870022;29;20947;-74
2023/04/07 09:53:03;;;;;;;7.00;4.30;;;10.90;99.90;;;;;;4877120;29;20538;-74
2023/04/07 09:55:30;;;;;;;3.60;3.30;;;10.90;99.90;;;;;;4870160;29;20456;-74
2023/04/07 09:58:03;;;;;;;5.37;4.07;;;11.00;99.90;;;;;;4871644;29;20469;-75
2023/04/07 10:00:38;;;;;;;13.87;4.90;;;11.10;99.90;;;;;;4870067;29;20513;-71
2023/04/07 10:03:07;;;;;;;3.77;3.37;;;11.10;99.90;;;;;;4874178;29;20456;-74
2023/04/07 10:05:36;;;;;;;7.57;4.73;;;11.20;99.90;;;;;;4871306;29;20452;-75
2023/04/07 10:08:09;;;;;;;10.57;4.10;;;11.00;99.90;;;;;;4878963;29;20481;-74
2023/04/07 10:10:36;;;;;;;4.03;2.60;;;10.90;99.90;;;;;;4891067;29;20549;-75
2023/04/07 10:13:07;;;;;;;4.70;2.93;;;10.70;99.90;;;;;;4888413;29;20582;-75
2023/04/07 10:15:36;;;;;;;3.97;2.97;;;10.80;99.90;;;;;;4880304;29;20565;-75
2023/04/07 10:18:07;;;;;;;6.47;4.03;;;10.80;99.90;;;;;;4881113;29;20545;-76
2023/04/07 10:20:35;;;;;;;4.63;3.90;;;10.80;99.90;;;;;;4896350;29;21043;-74
2023/04/07 10:23:09;;;;;;;8.90;5.77;;;10.90;99.90;;;;;;4890653;29;20512;-74
2023/04/07 10:25:37;;;;;;;5.67;3.80;;;11.00;99.90;;;;;;4889869;29;20753;-73
2023/04/07 10:28:07;;;;;;;3.67;3.00;;;10.90;99.90;;;;;;4883120;29;20953;-73
2023/04/07 10:30:35;;;;;;;3.97;2.80;;;10.70;99.90;;;;;;4884112;29;20450;-74
2023/04/07 10:33:02;;;;;;;4.30;2.67;;;10.60;99.90;;;;;;4873715;29;20624;-74
2023/04/07 10:35:49;;;;;;;5.00;3.57;;;10.60;99.90;;;;;;4885901;29;20468;-73
2023/04/07 10:38:18;;;;;;;5.43;3.33;;;10.50;99.90;;;;;;4887135;29;20465;-75
2023/04/07 10:40:45;;;;;;;4.10;3.70;;;10.40;99.90;;;;;;4881324;29;20452;-74
2023/04/07 10:43:13;;;;;;;3.70;2.97;;;10.30;99.90;;;;;;4885106;29;20500;-75
2023/04/07 10:45:58;;;;;;;5.53;3.60;;;10.60;99.90;;;;;;4886437;29;21328;-75
2023/04/07 10:48:27;;;;;;;4.10;2.87;;;10.50;99.90;;;;;;4886901;29;20528;-74
2023/04/07 10:51:17;;;;;;;4.93;3.77;;;10.60;99.90;;;;;;4893758;29;20517;-75
2023/04/07 10:54:19;;;;;;;3.60;2.60;;;10.70;99.90;;;;;;4857618;29;20457;-75
2023/04/07 10:57:12;;;;;;;5.90;3.03;;;10.70;99.90;;;;;;4895191;29;20448;-74
2023/04/07 11:00:05;;;;;;;4.10;3.63;;;10.50;99.90;;;;;;4870829;29;20527;-75
2023/04/07 11:02:38;;;;;;;4.20;3.53;;;10.70;99.90;;;;;;4872073;29;20494;-76
2023/04/07 11:05:06;;;;;;;4.30;3.50;;;10.80;99.90;;;;;;4875814;29;20466;-74
2023/04/07 11:07:49;;;;;;;4.87;4.30;;;10.70;99.90;;;;;;4862924;29;20465;-76
2023/04/07 11:10:18;;;;;;;6.70;4.03;;;10.90;99.90;;;;;;4864893;29;21123;-74
2023/04/07 11:13:02;;;;;;;5.47;3.87;;;11.00;99.90;;;;;;4890885;29;20482;-74
2023/04/07 11:15:29;;;;;;;4.10;3.07;;;11.10;99.90;;;;;;4876001;29;20617;-75
2023/04/07 11:18:16;;;;;;;7.17;2.80;;;11.10;99.90;;;;;;4866926;29;21260;-74
2023/04/07 11:20:49;;;;;;;2.53;2.23;;;11.10;99.90;;;;;;4864889;29;20502;-75
2023/04/07 11:23:17;;;;;;;4.57;2.90;;;11.00;99.90;;;;;;4869511;29;20558;-74
2023/04/07 11:25:46;;;;;;;3.80;3.03;;;10.90;99.90;;;;;;4870093;29;21617;-75
2023/04/07 11:28:15;;;;;;;3.73;2.30;;;11.10;99.90;;;;;;4870941;29;20441;-74
2023/04/07 11:30:52;;;;;;;3.97;2.90;;;10.90;99.90;;;;;;4867322;29;20437;-75
2023/04/07 11:33:21;;;;;;;5.47;2.77;;;11.00;99.90;;;;;;4871948;29;20990;-74
2023/04/07 11:35:54;;;;;;;3.53;2.70;;;11.00;99.90;;;;;;4881524;29;20472;-75
2023/04/07 11:38:22;;;;;;;4.73;2.90;;;11.10;99.90;;;;;;4859232;29;20461;-76
2023/04/07 11:40:49;;;;;;;3.73;2.60;;;11.10;99.90;;;;;;4880767;29;20445;-74
2023/04/07 11:43:20;;;;;;;4.90;2.33;;;11.30;99.90;;;;;;4841897;29;20710;-75
2023/04/07 11:46:03;;;;;;;2.57;2.10;;;11.40;99.90;;;;;;4866084;29;20463;-76
2023/04/07 11:48:32;;;;;;;5.47;3.40;;;11.50;99.90;;;;;;4880810;29;20550;-74
2023/04/07 11:51:00;;;;;;;2.37;2.17;;;11.60;99.90;;;;;;4886531;29;20788;-75
2023/04/07 11:53:29;;;;;;;4.00;2.40;;;11.50;99.90;;;;;;4859283;29;20843;-76
2023/04/07 11:56:01;;;;;;;3.20;2.40;;;11.60;99.90;;;;;;4873114;29;20437;-75
2023/04/07 11:58:29;;;;;;;2.57;2.23;;;11.70;99.90;;;;;;4875609;29;20490;-75
2023/04/07 12:00:57;;;;;;;4.70;3.30;;;11.50;99.90;;;;;;4881486;29;20471;-76
2023/04/07 12:03:25;;;;;;;2.63;2.40;;;11.20;99.90;;;;;;4874732;29;20486;-75
2023/04/07 12:05:54;;;;;;;2.07;1.80;;;11.00;99.90;;;;;;4882912;29;20433;-75
2023/04/07 12:08:39;;;;;;;3.73;2.63;;;11.10;99.90;;;;;;4879487;29;20460;-75
2023/04/07 12:11:08;;;;;;;2.80;2.10;;;11.10;99.90;;;;;;4875109;29;20441;-76
2023/04/07 12:13:36;;;;;;;2.20;1.73;;;11.10;99.90;;;;;;4837956;29;20496;-74
2023/04/07 12:16:04;;;;;;;2.70;2.27;;;11.10;99.90;;;;;;4869159;29;20652;-73
2023/04/07 12:18:32;;;;;;;2.10;1.70;;;11.10;99.90;;;;;;4868842;29;20482;-74
2023/04/07 12:20:59;;;;;;;2.27;2.07;;;11.20;99.90;;;;;;4883522;29;20459;-74
2023/04/07 12:23:26;;;;;;;2.63;2.43;;;11.20;99.90;;;;;;4890047;29;20467;-74
2023/04/07 12:25:53;;;;;;;6.07;2.10;;;11.10;99.90;;;;;;4886486;29;20813;-75
2023/04/07 12:28:20;;;;;;;2.43;2.03;;;11.20;99.90;;;;;;4845903;29;20900;-75
2023/04/07 12:30:51;;;;;;;3.10;2.50;;;11.10;99.90;;;;;;4866273;29;20435;-74
2023/04/07 12:33:19;;;;;;;3.13;2.83;;;11.20;99.90;;;;;;4842169;29;20964;-77
2023/04/07 12:35:46;;;;;;;3.90;2.93;;;11.10;99.90;;;;;;4886024;29;20530;-74
2023/04/07 12:38:14;;;;;;;2.70;2.20;;;11.20;99.90;;;;;;4889009;29;20518;-74
2023/04/07 12:40:42;;;;;;;3.00;2.40;;;11.20;99.90;;;;;;4885133;29;20429;-73
2023/04/07 12:43:09;;;;;;;2.83;2.00;;;11.20;99.90;;;;;;4887307;29;20955;-74
2023/04/07 12:45:36;;;;;;;4.17;3.27;;;11.30;99.90;;;;;;4884542;29;20475;-73
2023/04/07 12:48:05;;;;;;;7.77;3.90;;;11.40;99.90;;;;;;4885428;29;21023;-74
2023/04/07 12:50:32;;;;;;;3.43;2.20;;;11.20;99.90;;;;;;4886110;29;21034;-74
2023/04/07 12:53:04;;;;;;;3.50;2.47;;;11.00;99.90;;;;;;4890472;29;20500;-74
2023/04/07 12:55:32;;;;;;;2.63;2.13;;;11.20;99.90;;;;;;4880974;29;20613;-74
2023/04/07 12:57:59;;;;;;;2.90;2.10;;;11.30;99.90;;;;;;4873416;29;20562;-74
2023/04/07 13:00:26;;;;;;;2.27;2.07;;;11.20;99.90;;;;;;4884336;29;20610;-75